• Join FlightAware (Why Join?)
  • Login
  • US Flag 
04:22PM EST


 

Airport Tracker/Info


-or-


 

Live Flight TrackerFlight Track Log ✈ SAS4587 ✈ 23-Aug-2013 ✈ ENBO / BOO - ENVA / TRD

Flight Track Log - Related Links

Times and Time Zones

All times are in EDT time to prevent confusion due to time zone crossing. See the SAS4587 flight status page for this flight to view local times or setup timezone preferences in your user account.

Time Position Orientation Groundspeed Altitude Reporting Facility
EDT Latitude Longitude Course Direction KTS MPH feet Rate Location/Type
02:45PM 67.2690 14.3630 90° East 140 161  Level FlightAware
02:45PM 67.2710 14.3960 81° East 139 160 500 1,867 Climbing FlightAware
02:46PM 67.2630 14.4260 125° Southeast 138 159 1,400 1,833 Climbing FlightAware
02:46PM 67.2560 14.4290 171° South 166 191 1,600 2,100 Climbing FlightAware
02:46PM 67.2290 14.4140 192° South 206 237 2,800 2,455 Climbing FlightAware
02:46PM 67.2140 14.4020 197° South 235 270 3,400 2,914 Climbing FlightAware
02:47PM 67.1920 14.3850 197° South 252 290 4,500 3,300 Climbing FlightAware
02:47PM 67.1700 14.3690 196° South 264 304 5,600 2,850 Climbing FlightAware
02:47PM 67.1440 14.3520 194° South 284 327 6,400 3,150 Climbing FlightAware
02:48PM 67.1180 14.3330 196° South 289 333 7,700 3,659 Climbing FlightAware
02:48PM 67.0910 14.3080 200° South 296 341 8,900 3,500 Climbing FlightAware
02:49PM 67.0390 14.2550 202° Southwest 314 361 11,200 3,200 Climbing FlightAware
02:49PM 66.9900 14.2060 201° Southwest 331 381 12,900 2,954 Climbing FlightAware
02:50PM 66.9480 14.1640 201° Southwest 331 381 14,400 1,459 Climbing FlightAware
02:51PM 66.8920 14.1090 201° Southwest 331 381 14,700 220 Climbing FlightAware
02:51PM 66.8470 14.0650 201° Southwest 331 381 14,700 4,767 Level FlightAware
02:52PM 66.7680 13.9870 201° Southwest 361 415 20,500 6,627 Climbing FlightAware
02:52PM 66.7160 13.9370 201° Southwest 379 436 22,100 3,000 Climbing FlightAware
02:53PM 66.6580 13.8810 201° Southwest 397 457 23,800 3,040 Climbing FlightAware
02:54PM 66.5870 13.8130 201° Southwest 400 460 25,900 3,000 Climbing FlightAware
02:54PM 66.5330 13.7610 201° Southwest 415 478 27,300 2,657 Climbing FlightAware
02:55PM 66.4610 13.6920 201° Southwest 417 480 29,000 2,400 Climbing FlightAware
02:55PM 66.4060 13.6400 201° Southwest 432 497 30,100 2,215 Climbing FlightAware
02:56PM 66.3420 13.5790 201° Southwest 433 498 31,400 2,571 Climbing FlightAware
02:56PM 66.2740 13.5160 200° South 428 493 33,100 2,743 Climbing FlightAware
02:57PM 66.2080 13.4540 201° Southwest 432 497 34,600 2,400 Climbing FlightAware
02:58PM 66.1430 13.3940 200° South 431 496 35,900 2,123 Climbing FlightAware
02:58PM 66.0870 13.3420 201° Southwest 431 496 36,900 1,680 Climbing FlightAware
02:59PM 66.0040 13.2660 200° South 427 491 38,000 880 Climbing FlightAware
02:59PM 65.9460 13.2130 200° South 430 495 38,000  Level FlightAware
03:00PM 65.8800 13.1530 200° South 429 494 38,000  Level FlightAware
03:01PM 65.8150 13.0950 200° South 429 494 38,000  Level FlightAware
03:01PM 65.7480 13.0340 201° Southwest 427 491 38,000  Level FlightAware
03:02PM 65.6930 12.9850 200° South 425 489 38,000  Level FlightAware
03:02PM 65.6160 12.9170 200° South 431 496 38,000  Level FlightAware
03:03PM 65.5510 12.8590 200° South 430 495 38,000  Level FlightAware
03:03PM 65.4890 12.8050 200° South 429 494 38,000  Level FlightAware
03:04PM 65.4210 12.7450 200° South 427 491 38,000  Level FlightAware
03:05PM 65.3680 12.6990 200° South 426 490 38,000  Level FlightAware
03:05PM 65.2920 12.6340 200° South 426 490 38,000  Level FlightAware
03:06PM 65.2180 12.5700 200° South 426 490 38,000 -592 Level FlightAware
03:06PM 65.1590 12.5190 200° South 422 486 37,300 -1,909 Descending FlightAware
03:07PM 65.0960 12.4660 200° South 422 486 35,900 -2,750 Descending FlightAware
03:08PM 65.0260 12.4070 200° South 428 493 34,000 -2,757 Descending FlightAware
03:08PM 64.9590 12.3510 199° South 427 491 32,500 -2,471 Descending FlightAware
03:09PM 64.9010 12.3010 200° South 422 486 31,200 -2,382 Descending FlightAware
03:09PM 64.8340 12.2460 199° South 418 481 29,800 -2,333 Descending FlightAware
03:10PM 64.7690 12.1920 200° South 412 474 28,400 -2,333 Descending FlightAware
03:11PM 64.7060 12.1400 199° South 406 467 27,000 -2,294 Descending FlightAware
03:11PM 64.6500 12.0940 199° South 399 459 25,800 -2,206 Descending FlightAware
03:12PM 64.5880 12.0430 199° South 392 451 24,500 -2,229 Descending FlightAware
03:12PM 64.5310 11.9970 199° South 385 443 23,200 -2,206 Descending FlightAware
03:13PM 64.4740 11.9510 199° South 377 434 22,000 -2,057 Descending FlightAware
03:13PM 64.4160 11.9040 199° South 369 425 20,800 -2,057 Descending FlightAware
03:14PM 64.3610 11.8600 199° South 362 417 19,600 -2,057 Descending FlightAware
03:15PM 64.3050 11.8160 199° South 354 407 18,400 -1,941 Descending FlightAware
03:15PM 64.2570 11.7770 199° South 348 400 17,400 -1,971 Descending FlightAware
03:16PM 64.2000 11.7320 199° South 339 390 16,100 -1,971 Descending FlightAware
03:16PM 64.1530 11.6950 199° South 332 382 15,100 -1,800 Descending FlightAware
03:17PM 64.0980 11.6520 199° South 324 373 14,000 -1,784 Descending FlightAware
03:18PM 64.0480 11.6120 199° South 317 365 12,900 -1,826 Descending FlightAware
03:18PM 64.0020 11.5770 198° South 310 357 11,900 -1,839 Descending FlightAware
03:19PM 63.9630 11.5460 199° South 305 351 11,000 -1,652 Descending FlightAware
03:19PM 63.9110 11.5060 199° South 296 341 10,000 -1,071 Descending FlightAware
03:19PM 63.8930 11.4910 200° South 280 322 10,000 -769 Level FlightAware
03:20PM 63.8650 11.4700 198° South 274 315 9,500 -1,412 Descending FlightAware
03:20PM 63.8500 11.4590 198° South 272 313 9,200 -585 Descending FlightAware
03:21PM 63.8200 11.4360 199° South 271 312 9,100 -109 Descending FlightAware
03:21PM 63.7940 11.4180 197° South 271 312 9,100  Level FlightAware
03:21PM 63.7700 11.4000 198° South 271 312 9,100  Level FlightAware
03:22PM 63.7580 11.3910 198° South 271 312 9,100  Level FlightAware
03:22PM 63.7320 11.3720 198° South 271 312 9,100 -2,526 Level FlightAware
03:23PM 63.6450 11.3020 200° South 4,900 -3,236 Descending FlightAware
03:23PM 63.6140 11.2780 199° South 255 293 4,300 -692 Descending FlightAware
03:24PM 63.5880 11.2600 197° South 255 293 4,300 -1,315 Level FlightAware
03:25PM 63.5410 11.1900 214° Southwest 249 287 2,700 -1,309 Descending FlightAware
03:26PM 63.4900 11.1090 215° Southwest 245 282 1,900 -828 Descending FlightAware
03:26PM 63.4740 11.0840 215° Southwest 169 194 1,500 -977 Descending FlightAware
03:26PM 63.4630 11.0620 222° Southwest 146 168 1,200 -973 Descending FlightAware
03:27PM 63.4580 11.0410 242° Southwest 145 167 900 -1,034 Descending FlightAware
03:27PM 63.4570 11.0260 262° West 140 161 700 -1,161 Descending FlightAware
03:27PM 63.4570 10.9960 270° West 139 160 300 -1,263 Descending FlightAware
03:28PM 63.4580 10.9400 272° West 132 152 -450 Descending FlightAware